createdAt,value
2019-02-07T00:02:12.249Z,39.80
2019-02-07T00:04:42.895Z,38.37
2019-02-07T00:07:13.928Z,38.93
2019-02-07T00:09:44.661Z,38.90
2019-02-07T00:12:15.299Z,38.03
2019-02-07T00:14:45.978Z,38.93
2019-02-07T00:17:16.651Z,38.77
2019-02-07T00:19:47.556Z,37.70
2019-02-07T00:22:18.031Z,37.53
2019-02-07T00:24:48.652Z,38.33
2019-02-07T00:27:19.378Z,37.37
2019-02-07T00:29:49.997Z,38.77
2019-02-07T00:32:20.730Z,37.97
2019-02-07T00:34:51.489Z,38.53
2019-02-07T00:37:22.128Z,38.40
2019-02-07T00:39:52.854Z,36.93
2019-02-07T00:42:23.579Z,38.60
2019-02-07T00:44:54.354Z,37.70
2019-02-07T00:47:25.357Z,37.77
2019-02-07T00:49:56.012Z,39.93
2019-02-07T00:52:26.671Z,37.17
2019-02-07T00:54:57.192Z,36.73
2019-02-07T00:57:27.947Z,34.30
2019-02-07T00:59:58.852Z,35.87
2019-02-07T01:02:29.781Z,36.90
2019-02-07T01:05:00.466Z,35.43
2019-02-07T01:07:31.157Z,35.20
2019-02-07T01:10:01.883Z,36.63
2019-02-07T01:12:32.557Z,36.63
2019-02-07T01:15:03.578Z,35.40
2019-02-07T01:17:34.415Z,36.03
2019-02-07T01:20:07.014Z,37.70
2019-02-07T01:22:37.752Z,34.83
2019-02-07T01:25:10.486Z,36.27
2019-02-07T01:27:41.109Z,36.83
2019-02-07T01:30:14.817Z,36.87
2019-02-07T01:32:45.858Z,38.23
2019-02-07T01:35:16.938Z,36.33
2019-02-07T01:37:47.828Z,36.53
2019-02-07T01:40:20.071Z,35.40
2019-02-07T01:42:50.701Z,38.03
2019-02-07T01:45:22.011Z,35.67
2019-02-07T01:47:52.750Z,35.47
2019-02-07T01:50:24.393Z,34.33
2019-02-07T01:52:55.447Z,32.47
2019-02-07T01:55:26.113Z,35.67
2019-02-07T01:57:57.073Z,34.60
2019-02-07T02:00:27.867Z,33.47
2019-02-07T02:02:58.446Z,34.13
2019-02-07T02:05:29.789Z,36.23
2019-02-07T02:08:00.399Z,34.70
2019-02-07T02:10:31.190Z,36.20
2019-02-07T02:13:01.871Z,34.67
2019-02-07T02:15:32.595Z,35.53
2019-02-07T02:18:03.333Z,32.73
2019-02-07T02:20:34.076Z,29.93
2019-02-07T02:23:04.817Z,31.40
2019-02-07T02:25:35.710Z,32.40
2019-02-07T02:28:06.780Z,34.07
2019-02-07T02:30:37.867Z,31.93
2019-02-07T02:33:08.438Z,32.40
2019-02-07T02:35:39.049Z,32.17
2019-02-07T02:38:09.604Z,34.00
2019-02-07T02:40:40.240Z,33.07
2019-02-07T02:43:11.302Z,34.53
2019-02-07T02:45:42.388Z,33.93
2019-02-07T02:48:13.047Z,32.80
2019-02-07T02:50:43.637Z,33.60
2019-02-07T02:53:14.384Z,33.00
2019-02-07T02:55:45.473Z,31.60
2019-02-07T02:58:19.532Z,33.20
2019-02-07T03:01:09.247Z,32.40
2019-02-07T03:03:58.853Z,32.37
2019-02-07T03:06:48.487Z,33.37
2019-02-07T03:09:38.033Z,32.00
2019-02-07T03:12:27.949Z,33.87
2019-02-07T03:15:17.449Z,32.43
2019-02-07T03:18:06.977Z,33.37
2019-02-07T03:20:56.597Z,34.90
2019-02-07T03:23:46.288Z,35.43
2019-02-07T03:26:35.853Z,35.03
2019-02-07T03:29:25.589Z,32.77
2019-02-07T03:32:09.893Z,34.20
2019-02-07T03:34:48.262Z,35.13
2019-02-07T03:37:38.018Z,34.03
2019-02-07T03:40:21.310Z,34.63
2019-02-07T03:43:03.855Z,34.07
2019-02-07T03:45:42.885Z,33.63
2019-02-07T03:48:32.486Z,36.77
2019-02-07T03:51:21.984Z,35.57
2019-02-07T03:54:11.588Z,35.80
2019-02-07T03:57:01.139Z,37.17
2019-02-07T03:59:46.198Z,34.20
2019-02-07T04:02:35.688Z,36.73
2019-02-07T04:05:26.485Z,33.83
2019-02-07T04:08:15.911Z,38.37
2019-02-07T04:11:05.370Z,36.73
2019-02-07T04:13:54.857Z,35.27
2019-02-07T04:16:44.950Z,36.73
2019-02-07T04:19:34.680Z,37.67
2019-02-07T04:22:24.800Z,37.97
2019-02-07T04:25:14.310Z,36.60
2019-02-07T04:28:04.999Z,37.93
2019-02-07T04:30:54.593Z,37.53
2019-02-07T04:33:44.192Z,39.97
2019-02-07T04:36:24.458Z,40.13
2019-02-07T04:39:09.064Z,42.20
2019-02-07T04:41:58.917Z,43.07
2019-02-07T04:44:48.460Z,40.37
2019-02-07T04:47:38.435Z,41.00
2019-02-07T04:50:30.125Z,43.93
2019-02-07T04:53:19.658Z,42.90
2019-02-07T04:56:09.277Z,44.50
2019-02-07T04:58:48.528Z,43.43
2019-02-07T05:01:38.150Z,42.60
2019-02-07T05:04:27.737Z,45.77
2019-02-07T05:07:13.541Z,45.47
2019-02-07T05:10:03.088Z,45.40
2019-02-07T05:12:54.529Z,47.40
2019-02-07T05:15:44.025Z,44.20
2019-02-07T05:18:33.561Z,43.70
2019-02-07T05:21:18.338Z,45.47
2019-02-07T05:24:07.841Z,45.67
2019-02-07T05:26:57.493Z,44.90
2019-02-07T05:29:36.885Z,42.67
2019-02-07T05:32:23.947Z,41.83
2019-02-07T05:35:13.555Z,43.63
2019-02-07T05:38:03.158Z,42.87
2019-02-07T05:40:52.751Z,43.57
2019-02-07T05:43:42.459Z,42.33
2019-02-07T05:46:32.100Z,44.30
2019-02-07T05:49:19.319Z,38.33
2019-02-07T05:52:09.280Z,42.03
2019-02-07T05:54:58.992Z,44.47
2019-02-07T05:57:48.778Z,44.40
2019-02-07T06:00:38.263Z,34.60
2019-02-07T06:03:27.990Z,44.30
2019-02-07T06:06:12.049Z,38.07
2019-02-07T06:09:01.509Z,39.97
2019-02-07T06:11:41.690Z,40.23
2019-02-07T06:14:31.089Z,39.73
2019-02-07T06:17:16.299Z,39.27
2019-02-07T06:19:55.080Z,36.13
2019-02-07T06:22:44.798Z,38.60
2019-02-07T06:25:29.630Z,33.83
2019-02-07T06:28:19.677Z,38.23
2019-02-07T06:31:09.009Z,37.23
2019-02-07T06:33:59.181Z,36.57
2019-02-07T06:36:49.432Z,37.83
2019-02-07T06:42:39.524Z,37.10
2019-02-07T06:45:29.435Z,36.87
2019-02-07T06:48:10.443Z,37.63
2019-02-07T06:50:59.866Z,34.57
2019-02-07T06:53:49.353Z,38.87
2019-02-07T06:56:38.725Z,34.37
2019-02-07T06:59:28.287Z,35.00
2019-02-07T07:02:17.751Z,37.40
2019-02-07T07:05:02.263Z,38.80
2019-02-07T07:07:51.700Z,37.67
2019-02-07T07:10:40.921Z,37.70
2019-02-07T07:13:21.707Z,36.00
2019-02-07T07:16:12.020Z,38.77
2019-02-07T07:19:01.560Z,34.17
2019-02-07T07:21:43.592Z,36.60
2019-02-07T07:24:32.990Z,35.40
2019-02-07T07:27:13.023Z,37.03
2019-02-07T07:30:02.406Z,36.97
2019-02-07T07:32:47.949Z,37.13
2019-02-07T07:35:34.292Z,36.50
2019-02-07T07:38:23.826Z,35.33
2019-02-07T07:41:13.300Z,37.83
2019-02-07T07:44:02.567Z,38.60
2019-02-07T07:46:51.719Z,40.20
2019-02-07T07:49:41.065Z,35.40
2019-02-07T07:52:30.715Z,35.13
2019-02-07T07:55:20.313Z,35.23
2019-02-07T07:58:02.653Z,38.43
2019-02-07T08:00:52.270Z,39.27
2019-02-07T08:03:41.897Z,37.20
2019-02-07T08:06:31.529Z,36.50
2019-02-07T08:09:21.136Z,37.07
2019-02-07T08:12:10.759Z,35.93
2019-02-07T08:14:57.631Z,34.97
2019-02-07T08:17:47.822Z,36.17
2019-02-07T08:20:37.465Z,35.10
2019-02-07T08:23:14.229Z,36.13
2019-02-07T08:26:03.621Z,34.70
2019-02-07T08:28:46.262Z,33.47
2019-02-07T08:31:31.564Z,31.63
2019-02-07T08:34:15.010Z,32.47
2019-02-07T08:37:04.517Z,31.60
2019-02-07T08:39:47.114Z,26.90
2019-02-07T08:42:35.825Z,31.23
2019-02-07T08:45:29.273Z,33.53
2019-02-07T08:48:18.821Z,32.47
2019-02-07T08:51:03.489Z,31.67
2019-02-07T08:53:52.820Z,32.60
2019-02-07T08:56:42.764Z,32.10
2019-02-07T08:59:32.135Z,32.30
2019-02-07T09:02:13.789Z,33.37
2019-02-07T09:05:03.412Z,35.67
2019-02-07T09:07:48.552Z,33.07
2019-02-07T09:10:39.439Z,34.23
2019-02-07T09:13:28.892Z,34.30
2019-02-07T09:16:18.312Z,33.23
2019-02-07T09:19:07.379Z,34.60
2019-02-07T09:21:57.010Z,35.10
2019-02-07T09:24:46.550Z,34.40
2019-02-07T09:27:36.300Z,34.47
2019-02-07T09:30:31.264Z,34.23
2019-02-07T09:33:21.039Z,34.50
2019-02-07T09:36:10.568Z,34.87
2019-02-07T09:38:54.966Z,32.43
2019-02-07T09:41:45.651Z,31.90
2019-02-07T09:44:36.408Z,28.43
2019-02-07T09:47:26.030Z,29.80
2019-02-07T09:50:15.303Z,27.73
2019-02-07T09:53:04.791Z,26.23
2019-02-07T09:55:46.385Z,23.47
2019-02-07T09:58:35.770Z,23.33
2019-02-07T10:01:25.526Z,23.67
2019-02-07T10:04:14.864Z,24.27
2019-02-07T10:07:04.330Z,24.40
2019-02-07T10:09:53.769Z,23.73
2019-02-07T10:12:43.189Z,22.43
2019-02-07T10:15:29.745Z,22.97
2019-02-07T10:18:12.094Z,24.43
2019-02-07T10:21:01.559Z,23.70
2019-02-07T10:23:51.045Z,22.53
2019-02-07T10:26:40.661Z,22.80
2019-02-07T10:29:30.033Z,21.63
2019-02-07T10:32:19.667Z,23.83
2019-02-07T10:35:07.893Z,20.97
2019-02-07T10:37:57.424Z,20.60
2019-02-07T10:40:45.250Z,21.60
2019-02-07T10:43:34.946Z,20.07
2019-02-07T10:46:24.767Z,19.67
2019-02-07T10:49:14.375Z,18.47
2019-02-07T10:52:04.021Z,14.03
2019-02-07T10:54:51.105Z,14.00
2019-02-07T10:57:40.990Z,11.90
2019-02-07T11:00:38.135Z,17.07
2019-02-07T11:03:28.004Z,21.00
2019-02-07T11:06:17.710Z,19.10
2019-02-07T11:09:07.129Z,16.57
2019-02-07T11:11:56.727Z,16.97
2019-02-07T11:14:46.266Z,15.07
2019-02-07T11:17:30.524Z,14.37
2019-02-07T11:20:20.305Z,12.67
2019-02-07T11:23:09.884Z,12.13
2019-02-07T11:25:59.610Z,12.07
2019-02-07T11:28:49.124Z,9.57
2019-02-07T11:31:35.119Z,11.87
2019-02-07T11:34:25.884Z,10.03
2019-02-07T11:37:15.413Z,8.83
2019-02-07T11:40:04.980Z,12.47
2019-02-07T11:42:54.510Z,10.70
2019-02-07T11:45:44.364Z,13.60
2019-02-07T11:48:34.629Z,12.80
2019-02-07T11:51:24.301Z,12.03
2019-02-07T11:54:14.588Z,11.80
2019-02-07T11:57:04.225Z,15.93
2019-02-07T11:59:53.770Z,19.57
2019-02-07T12:02:42.649Z,20.63
2019-02-07T12:05:32.913Z,19.83
2019-02-07T12:08:22.549Z,18.30
2019-02-07T12:11:12.065Z,18.73
2019-02-07T12:14:01.887Z,16.70
2019-02-07T12:16:51.413Z,18.13
2019-02-07T12:19:39.831Z,17.87
2019-02-07T12:22:27.930Z,18.03
2019-02-07T12:25:18.505Z,20.03
2019-02-07T12:28:08.084Z,19.37
2019-02-07T12:30:57.468Z,18.10
2019-02-07T12:33:46.884Z,19.50
2019-02-07T12:36:32.974Z,20.40
2019-02-07T12:39:14.610Z,19.17
2019-02-07T12:42:03.989Z,17.43
2019-02-07T12:44:53.564Z,20.00
2019-02-07T12:47:43.084Z,19.37
2019-02-07T12:50:31.309Z,19.00
2019-02-07T12:53:20.899Z,20.20
2019-02-07T12:56:10.292Z,19.43
2019-02-07T12:58:59.864Z,17.47
2019-02-07T13:01:48.591Z,18.07
2019-02-07T13:04:38.047Z,15.50
2019-02-07T13:07:36.224Z,13.23
2019-02-07T13:10:28.576Z,11.90
2019-02-07T13:13:18.092Z,14.23
2019-02-07T13:16:07.512Z,10.90
2019-02-07T13:18:57.386Z,11.90
2019-02-07T13:21:47.047Z,10.97
2019-02-07T13:24:36.444Z,9.53
2019-02-07T13:27:26.127Z,12.40
2019-02-07T13:30:07.891Z,11.80
2019-02-07T13:32:51.847Z,12.00
2019-02-07T13:35:38.205Z,14.63
2019-02-07T13:38:27.664Z,14.30
2019-02-07T13:41:17.154Z,15.30
2019-02-07T13:44:06.770Z,13.87
2019-02-07T13:46:56.403Z,14.63
2019-02-07T13:49:51.954Z,16.43
2019-02-07T13:52:27.550Z,14.90
2019-02-07T13:55:17.024Z,13.63
2019-02-07T13:57:57.504Z,16.60
2019-02-07T14:00:36.037Z,14.57
2019-02-07T14:03:25.791Z,17.57
2019-02-07T14:06:15.976Z,16.63
2019-02-07T14:09:05.257Z,16.67
2019-02-07T14:11:48.144Z,17.47
2019-02-07T14:14:37.638Z,15.93
2019-02-07T14:17:26.464Z,12.43
2019-02-07T14:20:10.348Z,16.70
2019-02-07T14:22:52.069Z,14.93
2019-02-07T14:25:30.206Z,16.33
2019-02-07T14:28:13.583Z,16.97
2019-02-07T14:31:00.824Z,17.33
2019-02-07T14:33:41.624Z,19.80
2019-02-07T14:36:31.144Z,17.60
2019-02-07T14:39:20.543Z,17.53
2019-02-07T14:42:09.905Z,17.77
2019-02-07T14:44:53.947Z,19.40
2019-02-07T14:47:24.803Z,19.57
2019-02-07T14:49:55.604Z,20.97
2019-02-07T14:52:26.403Z,20.57
2019-02-07T14:54:57.582Z,21.57
2019-02-07T14:57:28.327Z,21.17
2019-02-07T14:59:59.820Z,21.00
2019-02-07T15:02:30.490Z,20.27
2019-02-07T15:05:01.209Z,22.30
2019-02-07T15:07:31.909Z,22.47
2019-02-07T15:10:02.589Z,22.47
2019-02-07T15:12:33.209Z,23.50
2019-02-07T15:15:03.829Z,25.77
2019-02-07T15:17:34.458Z,24.93
2019-02-07T15:20:08.539Z,25.67
2019-02-07T15:22:39.128Z,25.80
2019-02-07T15:25:10.622Z,24.37
2019-02-07T15:27:41.308Z,25.43
2019-02-07T15:30:17.701Z,24.43
2019-02-07T15:32:49.964Z,24.27
2019-02-07T15:35:25.800Z,25.83
2019-02-07T15:38:01.859Z,25.40
2019-02-07T15:40:32.605Z,25.73
2019-02-07T15:43:03.869Z,25.47
2019-02-07T15:45:36.717Z,25.40
2019-02-07T15:48:26.443Z,24.17
2019-02-07T15:51:23.873Z,25.00
2019-02-07T15:54:21.915Z,24.27
2019-02-07T15:56:58.115Z,24.23
2019-02-07T15:59:50.868Z,24.77
2019-02-07T16:02:26.390Z,26.23
2019-02-07T16:05:00.858Z,24.17
2019-02-07T16:07:31.540Z,24.80
2019-02-07T16:10:02.129Z,25.63
2019-02-07T16:12:32.884Z,26.27
2019-02-07T16:15:03.664Z,24.87
2019-02-07T16:17:34.318Z,26.30
2019-02-07T16:20:07.085Z,23.63
2019-02-07T16:22:37.924Z,23.03
2019-02-07T16:25:10.844Z,25.23
2019-02-07T16:27:41.405Z,24.57
2019-02-07T16:30:21.746Z,24.17
2019-02-07T16:32:52.444Z,24.90
2019-02-07T16:35:26.304Z,23.93
2019-02-07T16:38:01.742Z,22.20
2019-02-07T16:40:32.389Z,22.37
2019-02-07T16:43:03.064Z,25.97
2019-02-07T16:45:33.841Z,23.87
2019-02-07T16:48:05.087Z,24.63
2019-02-07T16:50:36.224Z,25.17
2019-02-07T16:53:08.429Z,24.70
2019-02-07T16:55:39.380Z,23.23
2019-02-07T16:58:10.311Z,23.67
2019-02-07T17:00:41.889Z,26.90
2019-02-07T17:03:14.388Z,26.23
2019-02-07T17:05:45.629Z,25.57
2019-02-07T17:08:18.690Z,26.57
2019-02-07T17:10:50.804Z,24.40
2019-02-07T17:13:21.924Z,24.63
2019-02-07T17:15:53.884Z,26.43
2019-02-07T17:18:25.671Z,25.63
2019-02-07T17:20:56.289Z,27.13
2019-02-07T17:23:27.524Z,26.63
2019-02-07T17:25:58.591Z,26.43
2019-02-07T17:28:29.366Z,28.27
2019-02-07T17:31:00.091Z,27.17
2019-02-07T17:33:31.271Z,27.40
2019-02-07T17:36:02.048Z,30.65
2019-02-07T17:38:32.724Z,28.60
2019-02-07T17:41:03.429Z,28.80
2019-02-07T17:43:35.184Z,28.90
2019-02-07T17:46:05.927Z,28.50
2019-02-07T17:48:37.849Z,36.25
2019-02-07T17:51:08.624Z,31.47
2019-02-07T17:53:42.635Z,31.23
2019-02-07T17:56:32.749Z,31.70
2019-02-07T17:59:06.128Z,31.33
2019-02-07T18:01:39.862Z,33.03
2019-02-07T18:04:15.548Z,34.57
2019-02-07T18:06:56.393Z,35.53
2019-02-07T18:09:36.704Z,35.67
2019-02-07T18:12:09.102Z,39.27
2019-02-07T18:14:43.470Z,36.57
2019-02-07T18:17:17.682Z,34.63
2019-02-07T18:19:48.708Z,35.33
2019-02-07T18:22:19.789Z,32.77
2019-02-07T18:24:57.385Z,31.73
2019-02-07T18:27:29.479Z,31.13
2019-02-07T18:30:03.922Z,31.30
2019-02-07T18:32:38.467Z,29.77
2019-02-07T18:35:11.004Z,29.67
2019-02-07T18:37:41.801Z,31.07
2019-02-07T18:40:19.389Z,32.57
2019-02-07T18:42:51.476Z,32.90
2019-02-07T18:45:25.031Z,32.10
2019-02-07T18:47:56.833Z,32.03
2019-02-07T18:50:35.013Z,32.73
2019-02-07T18:53:06.965Z,32.90
2019-02-07T18:55:37.687Z,33.80
2019-02-07T18:58:12.049Z,31.00
2019-02-07T19:00:43.137Z,32.83
2019-02-07T19:03:16.839Z,31.57
2019-02-07T19:05:59.856Z,31.07
2019-02-07T19:08:32.890Z,29.10
2019-02-07T19:11:04.944Z,30.17
2019-02-07T19:13:39.942Z,29.70
2019-02-07T19:16:19.232Z,30.70
2019-02-07T19:18:57.405Z,31.43
2019-02-07T19:21:36.459Z,35.23
2019-02-07T19:24:10.979Z,37.43
2019-02-07T19:26:44.777Z,35.13
2019-02-07T19:29:16.740Z,29.97
2019-02-07T19:31:48.415Z,31.40
2019-02-07T19:34:22.797Z,31.43
2019-02-07T19:36:57.514Z,31.90
2019-02-07T19:39:31.916Z,31.43
2019-02-07T19:42:07.349Z,32.30
2019-02-07T19:44:42.676Z,33.63
2019-02-07T19:47:18.020Z,32.63
2019-02-07T19:49:53.454Z,33.37
2019-02-07T19:52:31.444Z,32.83
2019-02-07T19:55:03.446Z,33.67
2019-02-07T19:57:35.302Z,33.67
2019-02-07T20:00:14.629Z,36.10
2019-02-07T20:02:49.404Z,32.80
2019-02-07T20:05:24.825Z,34.33
2019-02-07T20:07:55.599Z,35.63
2019-02-07T20:10:37.445Z,38.27
2019-02-07T20:13:11.632Z,39.27
2019-02-07T20:15:44.168Z,38.50
2019-02-07T20:18:17.369Z,34.47
2019-02-07T20:20:50.165Z,33.73
2019-02-07T20:23:28.049Z,31.30
2019-02-07T20:26:02.545Z,30.47
2019-02-07T20:28:34.328Z,32.07
2019-02-07T20:31:12.905Z,30.40
2019-02-07T20:33:47.425Z,28.47
2019-02-07T20:36:22.207Z,26.53
2019-02-07T20:38:56.940Z,30.17
2019-02-07T20:41:31.411Z,28.37
2019-02-07T20:44:04.553Z,30.00
2019-02-07T20:46:38.628Z,30.80
2019-02-07T20:49:13.828Z,29.03
2019-02-07T20:51:45.603Z,29.00
2019-02-07T20:54:17.840Z,29.63
2019-02-07T20:56:53.343Z,29.27
2019-02-07T20:59:25.124Z,30.23
2019-02-07T21:01:58.916Z,30.93
2019-02-07T21:04:33.073Z,28.40
2019-02-07T21:07:06.574Z,30.43
2019-02-07T21:09:42.107Z,31.60
2019-02-07T21:12:14.375Z,31.67
2019-02-07T21:14:48.129Z,32.50
2019-02-07T21:17:27.815Z,30.10
2019-02-07T21:19:59.956Z,35.23
2019-02-07T21:22:34.759Z,33.47
2019-02-07T21:25:16.172Z,33.47
2019-02-07T21:27:47.909Z,31.27
2019-02-07T21:30:25.413Z,32.90
2019-02-07T21:32:58.116Z,30.27
2019-02-07T21:35:31.036Z,32.77
2019-02-07T21:38:01.907Z,30.47
2019-02-07T21:40:34.915Z,32.30
2019-02-07T21:43:07.936Z,30.57
2019-02-07T21:45:38.792Z,31.73
2019-02-07T21:48:15.244Z,32.03
2019-02-07T21:50:45.820Z,31.00
2019-02-07T21:53:16.920Z,33.03
2019-02-07T21:55:47.501Z,32.23
2019-02-07T21:58:18.472Z,34.33
2019-02-07T22:00:50.193Z,32.33
2019-02-07T22:03:20.739Z,34.00
2019-02-07T22:05:51.372Z,32.27
2019-02-07T22:08:22.133Z,32.73
2019-02-07T22:10:52.777Z,33.43
2019-02-07T22:13:23.364Z,34.43
2019-02-07T22:15:54.255Z,35.53
2019-02-07T22:18:24.735Z,34.97
2019-02-07T22:20:56.060Z,35.33
2019-02-07T22:23:26.657Z,38.40
2019-02-07T22:25:57.170Z,37.90
2019-02-07T22:28:27.788Z,35.47
2019-02-07T22:30:58.471Z,36.87
2019-02-07T22:33:29.006Z,37.43
2019-02-07T22:35:59.605Z,36.23
2019-02-07T22:38:30.502Z,37.37
2019-02-07T22:41:00.890Z,36.07
2019-02-07T22:43:31.212Z,35.57
2019-02-07T22:46:01.661Z,39.53
2019-02-07T22:48:32.150Z,37.13
2019-02-07T22:51:02.539Z,35.90
2019-02-07T22:53:33.433Z,35.40
2019-02-07T22:56:04.045Z,37.80
2019-02-07T22:58:34.549Z,40.50
2019-02-07T23:01:50.520Z,43.13
2019-02-07T23:04:22.641Z,44.13
2019-02-07T23:06:53.213Z,44.70
2019-02-07T23:09:31.192Z,44.87
2019-02-07T23:12:01.736Z,44.90
2019-02-07T23:14:32.381Z,39.83
2019-02-07T23:17:03.138Z,41.67
2019-02-07T23:19:33.768Z,44.93
2019-02-07T23:22:04.657Z,42.87
2019-02-07T23:24:35.546Z,41.07
2019-02-07T23:27:06.326Z,40.27
2019-02-07T23:29:37.010Z,40.53
2019-02-07T23:32:07.938Z,42.30
2019-02-07T23:34:38.403Z,45.10
2019-02-07T23:37:08.937Z,44.97
2019-02-07T23:39:39.636Z,45.23
2019-02-07T23:42:10.416Z,42.13
2019-02-07T23:44:40.910Z,44.43
2019-02-07T23:47:11.630Z,42.80
2019-02-07T23:49:42.105Z,42.20
2019-02-07T23:52:13.090Z,41.63
2019-02-07T23:54:43.703Z,41.03
2019-02-07T23:57:14.170Z,41.20
2019-02-07T23:59:45.012Z,39.03
